METAR

ENBN 121220Z 35008KT 310V030 9999 FEW015 SCT050 16/07 Q1024

ENMS 121220Z 01004KT 340V080 9999 FEW030 BKN042 16/08 Q1023 RMK WIND 412FT VRB03KT

ENNM 120750Z VRB02KT 9999 FEW020 SCT030 BKN038 15/11 Q1023

ENOL 121220Z 35011KT 9999 FEW030 18/12 Q1023 NOSIG

ENST 121220Z 01004KT 9999 FEW025 BKN040 15/09 Q1024 RMK WIND 300FT 35004KT

ENVA 121220Z 25008KT 9999 FEW030 18/11 Q1023 NOSIG RMK WIND 670FT 29006KT



TAF

TAF ENVA 121100Z 1212/1312 29010KT 9999 FEW030TCU SCT040 BECMG 1218/1220 10007KT BECMG 1308/1311 28010KT